Time;durP1;ratioP1;P1;durP2;ratioP2;P2;SDS_P1;SDS_P2;PMS_P1;PMS_P2;Temp;Humidity;BMP_temperature;BMP_pressure;BME280_temperature;BME280_humidity;BME280_pressure;Samples;Min_cycle;Max_cycle;Signal;HPM_P1;HPM_P2
2022/10/15 00:01:39;;;;;;;104.13;98.30;;;14.60;99.90;;;;;;5029537;28;20576;-57
2022/10/15 00:04:05;;;;;;;108.23;101.83;;;14.60;99.90;;;;;;5049945;28;20393;-55
2022/10/15 00:06:31;;;;;;;111.07;104.50;;;14.60;99.90;;;;;;5050052;28;20427;-55
2022/10/15 00:08:56;;;;;;;111.55;104.97;;;14.60;99.90;;;;;;5032420;28;20788;-56
2022/10/15 00:11:27;;;;;;;120.10;113.10;;;14.60;99.90;;;;;;5031737;28;20428;-51
2022/10/15 00:13:56;;;;;;;121.63;114.63;;;14.60;99.90;;;;;;5034128;28;20632;-57
2022/10/15 00:16:27;;;;;;;121.75;114.53;;;14.60;99.90;;;;;;5052779;28;20499;-55
2022/10/15 00:18:58;;;;;;;116.95;110.05;;;14.60;99.90;;;;;;5035662;28;20396;-57
2022/10/15 00:21:24;;;;;;;107.32;100.97;;;14.60;99.90;;;;;;5034549;28;20380;-56
2022/10/15 00:23:59;;;;;;;106.93;100.78;;;14.50;99.90;;;;;;5034794;28;20384;-56
2022/10/15 00:26:27;;;;;;;104.43;98.20;;;14.50;99.90;;;;;;5032958;28;20661;-56
2022/10/15 00:29:01;;;;;;;102.50;96.60;;;14.50;99.90;;;;;;5033197;28;20389;-55
2022/10/15 00:31:29;;;;;;;103.60;97.65;;;14.50;99.90;;;;;;5050679;28;20663;-53
2022/10/15 00:34:00;;;;;;;105.10;98.88;;;14.50;99.90;;;;;;5030035;28;20426;-58
2022/10/15 00:36:28;;;;;;;112.27;105.77;;;14.50;99.90;;;;;;5032767;28;20474;-54
2022/10/15 00:38:57;;;;;;;124.25;116.85;;;14.50;99.90;;;;;;5031192;28;20685;-51
2022/10/15 00:41:32;;;;;;;116.47;109.45;;;14.50;99.90;;;;;;5029650;28;20405;-52
2022/10/15 00:44:01;;;;;;;110.57;103.90;;;14.40;99.90;;;;;;5030279;28;20877;-55
2022/10/15 00:46:37;;;;;;;105.30;99.15;;;14.40;99.90;;;;;;5030555;28;20461;-55
2022/10/15 00:49:20;;;;;;;114.78;107.97;;;14.40;99.90;;;;;;5032138;28;20446;-51
2022/10/15 00:52:06;;;;;;;114.10;107.35;;;14.40;99.90;;;;;;5030176;28;20660;-57
2022/10/15 00:54:41;;;;;;;116.05;109.20;;;14.40;99.90;;;;;;5031721;28;20413;-55
2022/10/15 00:57:08;;;;;;;123.85;116.63;;;14.50;99.90;;;;;;5033570;28;20402;-57
2022/10/15 00:59:37;;;;;;;131.07;123.40;;;14.50;99.90;;;;;;5031020;28;20449;-58
2022/10/15 01:02:05;;;;;;;132.60;124.63;;;14.50;99.90;;;;;;5030743;28;20675;-55
2022/10/15 01:04:32;;;;;;;137.80;129.63;;;14.50;99.90;;;;;;5032853;28;20807;-55
2022/10/15 01:06:57;;;;;;;141.68;133.48;;;14.50;99.90;;;;;;5032955;28;20655;-58
2022/10/15 01:09:23;;;;;;;145.38;136.82;;;14.50;99.90;;;;;;5035491;28;20415;-56
2022/10/15 01:11:54;;;;;;;152.07;142.85;;;14.60;99.90;;;;;;5034578;28;20726;-58
2022/10/15 01:14:39;;;;;;;144.60;136.00;;;14.60;99.90;;;;;;5032088;28;20807;-57
2022/10/15 01:17:26;;;;;;;148.82;139.80;;;14.60;99.90;;;;;;5034305;28;20810;-52
2022/10/15 01:20:07;;;;;;;156.32;146.43;;;14.60;99.90;;;;;;5033885;28;20386;-53
2022/10/15 01:22:47;;;;;;;153.50;144.00;;;14.60;99.90;;;;;;5033429;28;20413;-54
2022/10/15 01:25:19;;;;;;;149.65;140.15;;;14.50;99.90;;;;;;5033445;28;20390;-57
2022/10/15 01:28:29;;;;;;;146.18;136.88;;;14.60;99.90;;;;;;5034419;28;20387;-54
2022/10/15 01:31:20;;;;;;;145.50;136.27;;;14.60;99.90;;;;;;5033298;28;20807;-57
2022/10/15 01:34:03;;;;;;;151.93;142.27;;;14.60;99.90;;;;;;5032782;28;20757;-58
2022/10/15 01:36:44;;;;;;;150.32;140.75;;;14.60;99.90;;;;;;5032131;28;20387;-51
2022/10/15 01:39:17;;;;;;;152.75;142.95;;;14.60;99.90;;;;;;5032393;28;20429;-56
2022/10/15 01:41:51;;;;;;;144.90;135.82;;;14.60;99.90;;;;;;5032754;28;20425;-58
2022/10/15 01:44:22;;;;;;;150.85;141.23;;;14.60;99.90;;;;;;5034782;28;20414;-52
2022/10/15 01:47:02;;;;;;;156.60;146.75;;;14.60;99.90;;;;;;5033405;28;20398;-55
2022/10/15 01:49:32;;;;;;;148.32;138.85;;;14.60;99.90;;;;;;5034784;28;20391;-58
2022/10/15 01:52:03;;;;;;;152.17;142.57;;;14.60;99.90;;;;;;5033295;28;20475;-57
2022/10/15 01:54:30;;;;;;;157.32;147.10;;;14.50;99.90;;;;;;5033155;28;20498;-56
2022/10/15 01:56:57;;;;;;;148.85;139.30;;;14.60;99.90;;;;;;5033522;28;20383;-57
2022/10/15 01:59:27;;;;;;;150.77;141.10;;;14.60;99.90;;;;;;5033213;28;20395;-58
2022/10/15 02:01:53;;;;;;;157.77;147.73;;;14.60;99.90;;;;;;5035085;28;20399;-57
2022/10/15 02:04:21;;;;;;;152.85;143.15;;;14.60;99.90;;;;;;5033145;28;20444;-58
2022/10/15 02:07:10;;;;;;;157.32;147.45;;;14.60;99.90;;;;;;5032085;28;20383;-55
2022/10/15 02:09:52;;;;;;;150.77;140.98;;;14.60;99.90;;;;;;5030453;28;20390;-58
2022/10/15 02:12:37;;;;;;;151.67;142.07;;;14.50;99.90;;;;;;5032269;28;20383;-56
2022/10/15 02:15:28;;;;;;;158.67;148.67;;;14.50;99.90;;;;;;5033521;28;20406;-56
2022/10/15 02:18:09;;;;;;;154.75;144.85;;;14.50;99.90;;;;;;5031958;28;20402;-56
2022/10/15 02:20:49;;;;;;;151.65;142.02;;;14.50;99.90;;;;;;5032182;28;20718;-56
2022/10/15 02:23:29;;;;;;;154.90;145.20;;;14.50;99.90;;;;;;5034204;28;20463;-55
2022/10/15 02:25:56;;;;;;;152.18;142.68;;;14.40;99.90;;;;;;5034472;28;20387;-57
2022/10/15 02:28:24;;;;;;;152.93;143.18;;;14.40;99.90;;;;;;5033992;28;20378;-57
2022/10/15 02:30:52;;;;;;;154.27;144.25;;;14.40;99.90;;;;;;5032550;28;20406;-55
2022/10/15 02:33:19;;;;;;;159.27;149.00;;;14.40;99.90;;;;;;5031039;28;20578;-55
2022/10/15 02:35:47;;;;;;;161.20;150.90;;;14.40;99.90;;;;;;5029838;28;20529;-55
2022/10/15 02:38:18;;;;;;;157.85;147.85;;;14.30;99.90;;;;;;5031284;28;20383;-55
2022/10/15 02:40:44;;;;;;;149.93;140.10;;;14.40;99.90;;;;;;5030045;28;20403;-56
2022/10/15 02:43:13;;;;;;;148.00;138.43;;;14.40;99.90;;;;;;5029635;28;20380;-58
2022/10/15 02:45:38;;;;;;;151.40;141.57;;;14.30;99.90;;;;;;5031284;28;20402;-59
2022/10/15 02:48:05;;;;;;;150.87;141.03;;;14.30;99.90;;;;;;5031515;28;20735;-57
2022/10/15 02:50:30;;;;;;;149.30;139.75;;;14.30;99.90;;;;;;5029734;28;20390;-59
2022/10/15 02:52:56;;;;;;;149.82;140.23;;;14.30;99.90;;;;;;5031219;28;20391;-54
2022/10/15 02:55:21;;;;;;;153.03;143.20;;;14.30;99.90;;;;;;5031527;28;20683;-59
2022/10/15 02:57:47;;;;;;;155.70;145.67;;;14.20;99.90;;;;;;5033042;28;20414;-57
2022/10/15 03:00:13;;;;;;;148.43;138.82;;;14.20;99.90;;;;;;5031355;28;20379;-58
2022/10/15 03:02:39;;;;;;;147.60;138.15;;;14.20;99.90;;;;;;5032342;28;20711;-56
2022/10/15 03:05:04;;;;;;;154.38;144.48;;;14.20;99.90;;;;;;5032169;28;20402;-56
2022/10/15 03:07:30;;;;;;;158.00;147.95;;;14.20;99.90;;;;;;5032378;28;20399;-58
2022/10/15 03:09:56;;;;;;;162.80;152.60;;;14.20;99.90;;;;;;5034473;28;20399;-58
2022/10/15 03:12:22;;;;;;;164.93;154.43;;;14.20;99.90;;;;;;5032124;28;20490;-58
2022/10/15 03:14:48;;;;;;;173.45;162.63;;;14.20;99.90;;;;;;5031345;28;20406;-58
2022/10/15 03:17:14;;;;;;;180.82;169.63;;;14.20;99.90;;;;;;5031036;28;20742;-58
2022/10/15 03:19:40;;;;;;;170.48;160.02;;;14.20;99.90;;;;;;5031562;28;20389;-56
2022/10/15 03:22:05;;;;;;;155.17;145.77;;;14.20;99.90;;;;;;5031476;28;20470;-57
2022/10/15 03:24:31;;;;;;;168.87;158.57;;;14.10;99.90;;;;;;5032972;28;20457;-56
2022/10/15 03:26:56;;;;;;;155.15;145.95;;;14.10;99.90;;;;;;5032255;28;20414;-54
2022/10/15 03:29:22;;;;;;;142.90;134.40;;;14.10;99.90;;;;;;5031969;28;20710;-56
2022/10/15 03:31:48;;;;;;;140.87;132.40;;;14.10;99.90;;;;;;5031943;28;20482;-56
2022/10/15 03:34:13;;;;;;;139.02;130.95;;;14.10;99.90;;;;;;5052821;28;20428;-58
2022/10/15 03:36:39;;;;;;;136.33;128.10;;;14.10;99.90;;;;;;5037039;28;20662;-57
2022/10/15 03:39:05;;;;;;;135.67;127.67;;;14.10;99.90;;;;;;5053686;28;20392;-58
2022/10/15 03:41:30;;;;;;;135.57;127.32;;;14.10;99.90;;;;;;5036209;28;20486;-54
2022/10/15 03:44:06;;;;;;;141.05;132.40;;;14.00;99.90;;;;;;5036285;28;20424;-54
2022/10/15 03:46:33;;;;;;;138.13;129.70;;;14.00;99.90;;;;;;5036221;28;20401;-58
2022/10/15 03:48:58;;;;;;;136.55;128.10;;;14.00;99.90;;;;;;5036504;28;20488;-54
2022/10/15 03:51:24;;;;;;;135.23;127.03;;;14.00;99.90;;;;;;5036326;28;20492;-58
2022/10/15 03:53:50;;;;;;;135.32;127.22;;;14.00;99.90;;;;;;5052499;28;20416;-58
2022/10/15 03:56:15;;;;;;;140.97;132.07;;;14.00;99.90;;;;;;5034134;28;20396;-59
2022/10/15 03:58:41;;;;;;;146.03;136.90;;;14.00;99.90;;;;;;5034089;28;20385;-56
2022/10/15 04:01:11;;;;;;;144.63;135.52;;;13.90;99.90;;;;;;5033521;28;20905;-58
2022/10/15 04:03:38;;;;;;;152.43;142.87;;;13.90;99.90;;;;;;5032692;28;20821;-56
2022/10/15 04:06:03;;;;;;;146.05;137.05;;;13.80;99.90;;;;;;5031637;28;20389;-55
2022/10/15 04:08:29;;;;;;;145.98;136.75;;;13.80;99.90;;;;;;5050188;28;20650;-52
2022/10/15 04:10:54;;;;;;;138.07;129.47;;;13.80;99.90;;;;;;5032269;28;20417;-55
2022/10/15 04:13:20;;;;;;;142.75;134.05;;;13.80;99.90;;;;;;5049471;28;20430;-57
2022/10/15 04:15:45;;;;;;;137.63;129.10;;;13.80;99.90;;;;;;5031875;28;20646;-58
2022/10/15 04:18:11;;;;;;;139.23;130.17;;;13.80;99.90;;;;;;5048153;28;20389;-57
2022/10/15 04:20:37;;;;;;;148.75;139.50;;;13.80;99.90;;;;;;5033466;28;20783;-57
2022/10/15 04:23:03;;;;;;;149.18;139.65;;;13.80;99.90;;;;;;5032536;28;20374;-55
2022/10/15 04:25:28;;;;;;;155.83;146.00;;;13.80;99.90;;;;;;5032689;28;20635;-53
2022/10/15 04:27:54;;;;;;;148.00;138.70;;;13.80;99.90;;;;;;5033025;28;20774;-55
2022/10/15 04:30:21;;;;;;;149.52;140.00;;;13.90;99.90;;;;;;5032296;28;20381;-56
2022/10/15 04:32:46;;;;;;;157.18;147.38;;;13.90;99.90;;;;;;5031811;28;20512;-58
2022/10/15 04:35:12;;;;;;;151.10;141.33;;;13.90;99.90;;;;;;5031159;28;20496;-54
2022/10/15 04:37:37;;;;;;;149.57;139.87;;;13.90;99.90;;;;;;5030618;28;20467;-55
2022/10/15 04:40:04;;;;;;;152.60;142.83;;;13.80;99.90;;;;;;5048733;28;20397;-58
2022/10/15 04:42:30;;;;;;;156.40;146.60;;;13.80;99.90;;;;;;5032177;28;20673;-54
2022/10/15 04:44:56;;;;;;;154.52;144.48;;;13.90;99.90;;;;;;5031433;28;20769;-57
2022/10/15 04:47:22;;;;;;;160.10;149.68;;;13.90;99.90;;;;;;5031654;28;20416;-56
2022/10/15 04:49:48;;;;;;;154.85;144.90;;;13.80;99.90;;;;;;5036909;28;20405;-52
2022/10/15 04:52:13;;;;;;;157.00;146.87;;;13.80;99.90;;;;;;5035730;28;20529;-58
2022/10/15 04:54:39;;;;;;;163.60;152.80;;;13.80;99.90;;;;;;5034800;28;20639;-52
2022/10/15 04:57:05;;;;;;;164.13;152.82;;;13.70;99.90;;;;;;5034207;28;20424;-56
2022/10/15 04:59:31;;;;;;;164.20;153.18;;;13.70;99.90;;;;;;5033590;28;20389;-57
2022/10/15 05:01:56;;;;;;;159.70;149.25;;;13.80;99.90;;;;;;5050001;28;20404;-56
2022/10/15 05:04:22;;;;;;;157.87;147.43;;;13.80;99.90;;;;;;5031857;28;20508;-56
2022/10/15 05:06:47;;;;;;;156.53;146.20;;;13.70;99.90;;;;;;5031576;28;20518;-55
2022/10/15 05:09:13;;;;;;;162.18;151.23;;;13.70;99.90;;;;;;5032075;28;20405;-58
2022/10/15 05:11:38;;;;;;;161.70;150.67;;;13.80;99.90;;;;;;5030575;28;20416;-57
2022/10/15 05:14:05;;;;;;;157.60;147.10;;;13.70;99.90;;;;;;5030613;28;20393;-56
2022/10/15 05:16:31;;;;;;;160.73;149.85;;;13.70;99.90;;;;;;5048051;28;20741;-58
2022/10/15 05:19:00;;;;;;;165.05;153.98;;;13.70;99.90;;;;;;5029008;28;20389;-58
2022/10/15 05:21:26;;;;;;;163.68;152.57;;;13.70;99.90;;;;;;5026465;28;20378;-56
2022/10/15 05:23:52;;;;;;;157.52;146.93;;;13.70;99.90;;;;;;5032016;28;20390;-55
2022/10/15 05:26:20;;;;;;;155.63;145.43;;;13.70;99.90;;;;;;5029850;28;20559;-55
2022/10/15 05:28:46;;;;;;;157.80;147.35;;;13.70;99.90;;;;;;5031733;28;20389;-57
2022/10/15 05:31:15;;;;;;;162.48;151.48;;;13.70;99.90;;;;;;5031843;28;20409;-53
2022/10/15 05:33:41;;;;;;;155.40;145.07;;;13.70;99.90;;;;;;5032653;28;20817;-54
2022/10/15 05:36:26;;;;;;;154.13;143.73;;;13.70;99.90;;;;;;5034502;28;20378;-57
2022/10/15 05:38:57;;;;;;;155.82;145.10;;;13.70;99.90;;;;;;5049678;28;20863;-55
2022/10/15 05:41:24;;;;;;;156.48;145.77;;;13.70;99.90;;;;;;5049897;28;20451;-53
2022/10/15 05:43:51;;;;;;;155.75;145.05;;;13.60;99.90;;;;;;5030891;28;20394;-56
2022/10/15 05:46:18;;;;;;;160.40;149.57;;;13.60;99.90;;;;;;5047933;28;20639;-55
2022/10/15 05:48:51;;;;;;;150.63;140.15;;;13.60;99.90;;;;;;5028769;28;20408;-57
2022/10/15 05:51:17;;;;;;;153.73;143.33;;;13.50;99.90;;;;;;5030232;28;20381;-56
2022/10/15 05:53:45;;;;;;;153.45;142.85;;;13.40;99.90;;;;;;5031881;28;20473;-58
2022/10/15 05:56:11;;;;;;;150.73;140.30;;;13.40;99.90;;;;;;5032318;28;20514;-55
2022/10/15 05:58:37;;;;;;;146.63;136.37;;;13.30;99.90;;;;;;5032048;28;20943;-56
2022/10/15 06:01:05;;;;;;;146.27;136.17;;;13.30;99.90;;;;;;5032978;28;20456;-58
2022/10/15 06:03:30;;;;;;;144.82;134.52;;;13.40;99.90;;;;;;5032727;28;20416;-54
2022/10/15 06:05:56;;;;;;;140.35;130.93;;;13.40;99.90;;;;;;5048542;28;20688;-58
2022/10/15 06:08:22;;;;;;;116.97;108.55;;;13.40;99.90;;;;;;5029081;28;20426;-57
2022/10/15 06:10:47;;;;;;;118.88;110.18;;;13.40;99.90;;;;;;5029955;28;20397;-58
2022/10/15 06:13:14;;;;;;;112.37;103.87;;;13.30;99.90;;;;;;5029846;28;20697;-54
2022/10/15 06:15:44;;;;;;;112.07;103.68;;;13.30;99.90;;;;;;5029042;28;20405;-57
2022/10/15 06:18:11;;;;;;;114.07;105.32;;;13.20;99.90;;;;;;5045204;28;20377;-56
2022/10/15 06:20:37;;;;;;;111.53;103.07;;;13.20;99.90;;;;;;5045048;28;20385;-56
2022/10/15 06:23:04;;;;;;;111.45;102.85;;;13.20;99.90;;;;;;5028601;28;20388;-55
2022/10/15 06:25:30;;;;;;;106.00;97.93;;;13.10;99.90;;;;;;5046452;28;20381;-55
2022/10/15 06:28:01;;;;;;;104.60;96.60;;;13.10;99.90;;;;;;5025319;28;20467;-56
2022/10/15 06:30:27;;;;;;;106.50;98.32;;;13.10;99.90;;;;;;5026028;28;20705;-55
2022/10/15 06:32:53;;;;;;;106.17;98.30;;;13.20;99.90;;;;;;5026207;28;20515;-52
2022/10/15 06:35:20;;;;;;;109.83;101.63;;;13.20;99.90;;;;;;5027817;28;20724;-58
2022/10/15 06:37:46;;;;;;;108.07;100.00;;;13.20;99.90;;;;;;5026639;28;20389;-56
2022/10/15 06:40:12;;;;;;;111.03;102.55;;;13.20;99.90;;;;;;5026275;28;20415;-58
2022/10/15 06:42:38;;;;;;;114.10;105.63;;;13.30;99.90;;;;;;5042877;28;20380;-56
2022/10/15 06:45:05;;;;;;;113.22;104.72;;;13.30;99.90;;;;;;5022698;28;20394;-57
2022/10/15 06:47:31;;;;;;;113.13;104.47;;;13.30;99.90;;;;;;5024999;28;20385;-53
2022/10/15 06:49:57;;;;;;;113.72;105.20;;;13.30;99.90;;;;;;5025573;28;20385;-57
2022/10/15 06:52:25;;;;;;;111.27;103.00;;;13.30;99.90;;;;;;5042983;28;20825;-57
2022/10/15 06:54:51;;;;;;;104.10;96.20;;;13.30;99.90;;;;;;5042253;28;20791;-55
2022/10/15 06:57:16;;;;;;;111.00;102.57;;;13.30;99.90;;;;;;5026258;28;20404;-53
2022/10/15 06:59:42;;;;;;;104.80;96.73;;;13.30;99.90;;;;;;5026950;28;20393;-56
2022/10/15 07:02:12;;;;;;;107.72;99.25;;;13.30;99.90;;;;;;5027344;28;20490;-55
2022/10/15 07:04:38;;;;;;;108.47;100.53;;;13.30;99.90;;;;;;5025266;28;20470;-53
2022/10/15 07:07:04;;;;;;;117.60;108.93;;;13.30;99.90;;;;;;5025287;28;20385;-55
2022/10/15 07:09:30;;;;;;;116.93;108.10;;;13.30;99.90;;;;;;5027009;28;20397;-54
2022/10/15 07:11:56;;;;;;;113.23;104.57;;;13.30;99.90;;;;;;5022651;28;20683;-56
2022/10/15 07:14:22;;;;;;;115.93;107.30;;;13.30;99.90;;;;;;5021577;28;20405;-61
2022/10/15 07:16:47;;;;;;;113.00;104.85;;;13.30;99.90;;;;;;5021035;28;20397;-53
2022/10/15 07:19:13;;;;;;;116.32;107.80;;;13.30;99.90;;;;;;5039003;28;20539;-56
2022/10/15 07:21:39;;;;;;;113.85;105.50;;;13.30;99.90;;;;;;5018221;28;20519;-59
2022/10/15 07:24:05;;;;;;;110.23;102.27;;;13.30;99.90;;;;;;5017419;28;20553;-59
2022/10/15 07:26:30;;;;;;;114.78;106.50;;;13.20;99.90;;;;;;5018401;28;20455;-57
2022/10/15 07:28:56;;;;;;;108.77;100.57;;;13.20;99.90;;;;;;5015084;28;20382;-53
2022/10/15 07:31:22;;;;;;;109.15;101.35;;;13.20;99.90;;;;;;5017418;28;20424;-55
2022/10/15 07:33:48;;;;;;;106.90;98.90;;;13.20;99.90;;;;;;5017354;28;20413;-55
2022/10/15 07:36:13;;;;;;;106.50;98.63;;;13.20;99.90;;;;;;5018306;28;20445;-53
2022/10/15 07:38:39;;;;;;;103.28;96.07;;;13.30;99.90;;;;;;5034918;28;20602;-54
2022/10/15 07:41:06;;;;;;;109.97;102.00;;;13.40;99.90;;;;;;5037560;28;20504;-54
2022/10/15 07:43:33;;;;;;;107.93;99.78;;;13.30;99.90;;;;;;5038260;28;20771;-55
2022/10/15 07:45:59;;;;;;;104.90;97.15;;;13.20;99.90;;;;;;5020061;28;20704;-57
2022/10/15 07:48:25;;;;;;;104.05;96.38;;;13.20;99.90;;;;;;5018739;28;20734;-54
2022/10/15 07:50:58;;;;;;;102.20;94.80;;;13.20;99.90;;;;;;5018660;28;20408;-55
2022/10/15 07:53:25;;;;;;;103.55;95.93;;;13.30;99.90;;;;;;5020633;28;20385;-55
2022/10/15 07:55:50;;;;;;;113.88;105.75;;;13.40;99.90;;;;;;5021539;28;20455;-55
2022/10/15 07:58:16;;;;;;;111.63;103.53;;;13.30;99.90;;;;;;5021302;28;20478;-56
2022/10/15 08:00:42;;;;;;;106.35;98.50;;;13.30;99.90;;;;;;5039750;28;20805;-58
2022/10/15 08:03:07;;;;;;;107.13;99.43;;;13.30;99.90;;;;;;5020767;28;20801;-58
2022/10/15 08:05:33;;;;;;;106.97;99.30;;;13.30;99.90;;;;;;5021314;28;20388;-56
2022/10/15 08:07:59;;;;;;;110.53;102.67;;;13.40;99.90;;;;;;5023700;28;20392;-58
2022/10/15 08:10:25;;;;;;;109.50;101.60;;;13.40;99.90;;;;;;5022618;28;20385;-58
2022/10/15 08:12:51;;;;;;;107.63;99.87;;;13.40;99.90;;;;;;5020983;28;20872;-57
2022/10/15 08:15:16;;;;;;;111.83;103.93;;;13.50;99.90;;;;;;5022601;28;20713;-59
2022/10/15 08:17:42;;;;;;;107.73;99.70;;;13.50;99.90;;;;;;5021618;28;20784;-56
2022/10/15 08:20:08;;;;;;;110.28;102.43;;;13.50;99.90;;;;;;5021694;28;20661;-57
2022/10/15 08:22:34;;;;;;;111.57;103.60;;;13.50;99.90;;;;;;5022522;28;20483;-58
2022/10/15 08:24:59;;;;;;;110.80;103.00;;;13.50;99.90;;;;;;5026248;28;20937;-59
2022/10/15 08:27:25;;;;;;;111.97;104.23;;;13.60;99.90;;;;;;5023558;28;20381;-54
2022/10/15 08:29:51;;;;;;;112.43;104.32;;;13.70;99.90;;;;;;5023453;28;20389;-56
2022/10/15 08:32:16;;;;;;;109.57;101.72;;;13.80;99.90;;;;;;5041067;28;20504;-54
2022/10/15 08:34:42;;;;;;;107.95;100.20;;;13.80;99.90;;;;;;5020824;28;20445;-57
2022/10/15 08:37:08;;;;;;;106.70;99.20;;;13.80;99.90;;;;;;5022135;28;20545;-56
2022/10/15 08:39:34;;;;;;;105.93;98.50;;;13.90;99.90;;;;;;5024626;28;20392;-58
2022/10/15 08:42:22;;;;;;;100.63;93.53;;;13.90;99.90;;;;;;5040296;28;20478;-55
2022/10/15 08:45:14;;;;;;;96.32;89.45;;;14.00;99.90;;;;;;5040794;28;20454;-55
2022/10/15 08:47:54;;;;;;;99.40;92.50;;;14.00;99.90;;;;;;5033375;28;20585;-53
2022/10/15 08:50:26;;;;;;;98.75;91.82;;;14.00;99.90;;;;;;5029937;28;20665;-57
2022/10/15 08:52:54;;;;;;;97.97;91.20;;;14.00;99.90;;;;;;5027507;28;20671;-55
2022/10/15 08:55:22;;;;;;;92.40;85.78;;;14.10;99.90;;;;;;5026381;28;20843;-55
2022/10/15 08:57:59;;;;;;;94.88;88.15;;;14.10;99.90;;;;;;5026802;28;20676;-56
2022/10/15 09:00:51;;;;;;;88.93;82.68;;;14.20;99.90;;;;;;5027586;28;20458;-54
2022/10/15 09:03:43;;;;;;;86.28;80.10;;;14.30;99.90;;;;;;5027316;28;20602;-58
2022/10/15 09:06:18;;;;;;;89.68;83.00;;;14.20;99.90;;;;;;5025763;28;20681;-55
2022/10/15 09:08:56;;;;;;;92.82;86.35;;;14.30;99.90;;;;;;5024291;28;20773;-54
2022/10/15 09:11:56;;;;;;;89.72;83.13;;;14.30;99.90;;;;;;5023974;28;20477;-54
2022/10/15 09:14:40;;;;;;;84.95;78.80;;;14.40;99.90;;;;;;5021738;28;20405;-57
2022/10/15 09:17:35;;;;;;;89.55;83.20;;;14.40;99.90;;;;;;5026049;28;20857;-57
2022/10/15 09:20:04;;;;;;;89.07;82.57;;;14.40;99.90;;;;;;5024309;28;20466;-57
2022/10/15 09:22:32;;;;;;;85.35;79.45;;;14.40;99.90;;;;;;5028102;28;20682;-59
2022/10/15 09:24:58;;;;;;;83.35;77.40;;;14.50;99.90;;;;;;5045262;28;20381;-59
2022/10/15 09:27:37;;;;;;;79.10;73.90;;;14.50;99.90;;;;;;5043472;28;20491;-57
2022/10/15 09:30:12;;;;;;;84.93;78.95;;;14.70;99.90;;;;;;5025913;28;20393;-58
2022/10/15 09:32:44;;;;;;;80.70;75.32;;;14.80;99.90;;;;;;5024955;28;20500;-57
2022/10/15 09:35:21;;;;;;;83.43;77.82;;;14.80;99.90;;;;;;5024297;28;20974;-57
2022/10/15 09:37:54;;;;;;;76.70;71.15;;;14.80;99.90;;;;;;5025171;28;20444;-58
2022/10/15 09:40:50;;;;;;;82.07;75.97;;;14.70;99.90;;;;;;5024313;28;20745;-57
2022/10/15 09:43:26;;;;;;;81.45;75.70;;;14.70;99.90;;;;;;5040503;28;20381;-58
2022/10/15 09:45:52;;;;;;;83.13;77.18;;;14.60;99.90;;;;;;5022681;28;20404;-56
2022/10/15 09:48:19;;;;;;;78.32;73.25;;;14.70;99.90;;;;;;5021938;28;20389;-59
2022/10/15 09:50:59;;;;;;;84.47;78.68;;;14.70;99.90;;;;;;5038484;28;20389;-55
2022/10/15 09:53:54;;;;;;;75.50;70.55;;;14.80;99.90;;;;;;5024678;28;20658;-59
2022/10/15 09:56:25;;;;;;;75.90;70.55;;;14.90;99.90;;;;;;5028934;28;20390;-56
2022/10/15 09:58:54;;;;;;;76.03;70.85;;;14.90;99.90;;;;;;5048745;28;20378;-53
2022/10/15 10:01:20;;;;;;;75.70;70.63;;;14.90;99.90;;;;;;5032019;28;20443;-56
2022/10/15 10:03:54;;;;;;;76.45;71.50;;;14.90;99.90;;;;;;5049300;28;20424;-57
2022/10/15 10:06:22;;;;;;;83.93;78.35;;;15.10;99.90;;;;;;5046382;28;20699;-59
2022/10/15 10:08:58;;;;;;;81.43;75.70;;;15.30;99.90;;;;;;5027672;28;20439;-57
2022/10/15 10:11:26;;;;;;;78.90;73.70;;;15.30;99.90;;;;;;5028026;28;20386;-57
2022/10/15 10:13:59;;;;;;;77.35;72.35;;;15.60;99.90;;;;;;5044450;28;20381;-58
2022/10/15 10:16:26;;;;;;;91.82;85.95;;;16.00;99.90;;;;;;5030151;28;20459;-55
2022/10/15 10:19:08;;;;;;;107.50;100.80;;;16.40;99.90;;;;;;5029869;28;20388;-57
2022/10/15 10:21:38;;;;;;;101.93;95.57;;;16.40;99.90;;;;;;5030643;28;20471;-54
2022/10/15 10:24:29;;;;;;;103.05;96.65;;;16.30;99.90;;;;;;5030718;28;20534;-56
2022/10/15 10:26:55;;;;;;;104.20;97.72;;;16.60;99.90;;;;;;5047168;28;20384;-53
2022/10/15 10:29:22;;;;;;;98.43;92.43;;;16.50;99.90;;;;;;5049194;28;20413;-52
2022/10/15 10:31:50;;;;;;;105.05;98.53;;;16.50;99.90;;;;;;5033007;28;20393;-55
2022/10/15 10:34:26;;;;;;;103.55;97.05;;;16.70;99.90;;;;;;5048946;28;20456;-51
2022/10/15 10:36:53;;;;;;;100.07;93.40;;;16.60;99.90;;;;;;5030371;28;20665;-52
2022/10/15 10:39:28;;;;;;;108.07;101.60;;;16.70;99.90;;;;;;5049284;28;20731;-53
2022/10/15 10:42:02;;;;;;;110.17;103.67;;;16.80;99.90;;;;;;5048944;28;20378;-56
2022/10/15 10:44:34;;;;;;;102.95;96.53;;;17.00;99.90;;;;;;5027970;28;20446;-57
2022/10/15 10:47:23;;;;;;;97.35;91.20;;;17.40;99.90;;;;;;5026691;28;20385;-56
2022/10/15 10:49:48;;;;;;;101.70;95.22;;;17.70;99.90;;;;;;5026957;28;20702;-57
2022/10/15 10:52:23;;;;;;;85.90;80.47;;;17.80;99.90;;;;;;5024266;28;20793;-55
2022/10/15 10:55:02;;;;;;;76.45;71.30;;;18.00;99.90;;;;;;5024776;28;20781;-58
2022/10/15 10:57:54;;;;;;;60.50;56.83;;;18.20;99.90;;;;;;5043970;28;20854;-57
2022/10/15 11:00:35;;;;;;;65.07;60.60;;;18.10;99.90;;;;;;5019425;28;20452;-57
2022/10/15 11:03:01;;;;;;;80.85;75.75;;;18.00;99.90;;;;;;5026543;28;20844;-56
2022/10/15 11:05:29;;;;;;;66.20;62.05;;;17.90;99.90;;;;;;5043604;28;20385;-56
2022/10/15 11:08:04;;;;;;;77.97;72.90;;;17.80;99.90;;;;;;5027068;28;20817;-56
2022/10/15 11:10:40;;;;;;;69.53;65.28;;;17.40;99.90;;;;;;5026494;28;20440;-55
2022/10/15 11:13:15;;;;;;;74.05;69.18;;;17.30;99.90;;;;;;5025834;28;20392;-56
2022/10/15 11:16:11;;;;;;;76.57;71.72;;;17.20;99.90;;;;;;5025837;28;20713;-52
2022/10/15 11:19:04;;;;;;;78.60;73.70;;;17.20;99.90;;;;;;5022710;28;20481;-57
2022/10/15 11:22:01;;;;;;;87.70;82.32;;;17.30;99.90;;;;;;5022438;28;20381;-57
2022/10/15 11:24:50;;;;;;;77.30;72.50;;;17.20;99.90;;;;;;5023813;28;20469;-56
2022/10/15 11:27:24;;;;;;;63.72;59.63;;;17.30;99.90;;;;;;5024593;28;20381;-55
2022/10/15 11:30:24;;;;;;;68.90;64.55;;;17.20;99.90;;;;;;5021844;28;20396;-54
2022/10/15 11:32:53;;;;;;;70.88;66.53;;;17.10;99.90;;;;;;5022848;28;20506;-54
2022/10/15 11:35:47;;;;;;;72.77;68.00;;;17.30;99.90;;;;;;5021900;28;20505;-57
2022/10/15 11:38:36;;;;;;;66.28;62.17;;;17.60;99.90;;;;;;5016159;28;20448;-55
2022/10/15 11:41:37;;;;;;;59.80;56.05;;;17.80;99.90;;;;;;5024094;28;20395;-55
2022/10/15 11:44:30;;;;;;;55.58;52.17;;;17.90;99.90;;;;;;5020137;28;20391;-55
2022/10/15 11:47:02;;;;;;;60.15;56.47;;;18.20;99.90;;;;;;5018951;28;20398;-53
2022/10/15 11:49:41;;;;;;;65.85;62.15;;;18.60;99.90;;;;;;5018770;28;20391;-55
2022/10/15 11:52:45;;;;;;;81.50;76.72;;;18.60;99.90;;;;;;5019255;28;20392;-55
2022/10/15 11:55:24;;;;;;;72.97;68.72;;;18.70;99.90;;;;;;5019638;28;20395;-57
2022/10/15 11:57:56;;;;;;;79.72;75.10;;;18.80;99.90;;;;;;5018207;28;20379;-53
2022/10/15 12:00:38;;;;;;;94.78;89.35;;;18.70;99.90;;;;;;5018476;28;20379;-57
2022/10/15 12:03:23;;;;;;;116.15;109.53;;;18.80;99.90;;;;;;5018059;28;20398;-58
2022/10/15 12:05:59;;;;;;;113.63;107.10;;;18.80;99.90;;;;;;5019801;28;20398;-56
2022/10/15 12:08:29;;;;;;;119.40;112.85;;;18.90;99.90;;;;;;5020799;28;20485;-55
2022/10/15 12:11:15;;;;;;;129.05;121.68;;;18.70;99.90;;;;;;5020954;28;20365;-53
2022/10/15 12:14:19;;;;;;;99.82;94.22;;;18.40;99.90;;;;;;5021439;28;20391;-57
2022/10/15 12:17:03;;;;;;;112.88;106.57;;;18.40;99.90;;;;;;4988549;28;20533;-58
2022/10/15 12:19:46;;;;;;;118.43;111.60;;;18.70;99.90;;;;;;5021193;28;20383;-56
2022/10/15 12:22:12;;;;;;;94.13;88.95;;;18.70;99.90;;;;;;5020477;28;20379;-57
2022/10/15 12:24:38;;;;;;;105.77;99.87;;;18.70;99.90;;;;;;5020888;28;20390;-52
2022/10/15 12:27:19;;;;;;;117.70;110.85;;;18.70;99.90;;;;;;5022303;28;20387;-57
2022/10/15 12:30:01;;;;;;;112.28;106.00;;;18.90;99.90;;;;;;5023138;28;20980;-54
2022/10/15 12:32:45;;;;;;;110.05;103.72;;;19.10;99.90;;;;;;5022861;28;20498;-53
2022/10/15 12:35:13;;;;;;;111.40;105.38;;;19.60;99.90;;;;;;5022297;28;20414;-56